KDMA/DMA METAR and TAF weather

Enter ICAO airport designator
Station Type Date Time Source
KDMA METAR 2020/08/11 00:58 UTC NOAA

KDMA 110058Z AUTO 33010KT 10SM CLR 40/02 A2990 RMK AO2 SLP074 T03960023 FZRANO $


Station Type Date Time Source
KDMA Decoded METAR 2020/08/11 00:58 UTC NOAA

Davis-Monthan Air Force Base, AZ, United States (KDMA) 32-10N 110-53W
Aug 10, 2020 - 08:58 PM EDT / 2020.08.11 0058 UTC
Wind: from the NNW (330 degrees) at 12 MPH (10 KT):0
Visibility: 10 mile(s):0
Sky conditions: clear
Temperature: 103.3 F (39.6 C)
Dew Point: 36.1 F (2.3 C)
Relative Humidity: 9%
Pressure (altimeter): 29.9 in. Hg (1012 hPa)
ob: KDMA 110058Z AUTO 33010KT 10SM CLR 40/02 A2990 RMK AO2 SLP074 T03960023 FZRANO
cycle: 1

Station Type Date Time Source
KDMA TAF 2020/08/10 22:12 UTC NOAA

TAF TAF KDMA 102203Z 1022/1204 29009KT 9999 SCT150 QNH2991INS
TEMPO 1022/1102 28012G18KT
BECMG 1105/1106 VRB06KT 9999 FEW200 QNH2998INS
BECMG 1118/1119 31007KT 9999 SCT150 SCT200 QNH2988INS TX41/1022Z TN26/1112Z

Example: see airport list